EDW8UH LSZH-LICC
Flight info
| Callsign | EDW8UH |
|---|---|
| Flight time | 1h 53m |
| Altitude | 36000 |
| Route | VEBIT1Y VEBIT T53 GERSA DCT SOSON DCT ODINA DCT TINKU/N0450F370 DCT ELVIN DCT PELEN Q789 UXUTA UXUTA1Q |
| Aircraft | A320/M-SDE3FGHIRWY/LB1 |
Departure
| Time | 2026-05-06 18:15 |
|---|---|
| Airport | Zürich Airport (LSZH) |
Arrival
| Time | 2026-05-06 20:08 |
|---|---|
| Airport | Catania-Fontanarossa Airport (LICC) |
| Time | Latitude | Longitude | Altitude | Speed | Heading |
|---|---|---|---|---|---|
| 2026-05-06 17:51 | 47.45162 | 8.55881 | 1397 ft | 0 kts | 186° |
| 2026-05-06 18:00 | 47.45177 | 8.55883 | 1406 ft | 4 kts | 186° |
| 2026-05-06 18:00 | 47.45203 | 8.55887 | 1403 ft | 4 kts | 187° |
| 2026-05-06 18:01 | 47.45211 | 8.55889 | 1403 ft | 0 kts | 191° |
| 2026-05-06 18:01 | 47.45220 | 8.55891 | 1403 ft | 3 kts | 197° |
| 2026-05-06 18:01 | 47.45242 | 8.55908 | 1408 ft | 3 kts | 231° |
| 2026-05-06 18:02 | 47.45250 | 8.55936 | 1404 ft | 1 kts | 276° |
| 2026-05-06 18:02 | 47.45250 | 8.55942 | 1405 ft | 0 kts | 276° |
| 2026-05-06 18:04 | 47.45251 | 8.55928 | 1407 ft | 3 kts | 276° |
| 2026-05-06 18:05 | 47.45256 | 8.55847 | 1400 ft | 10 kts | 274° |
| 2026-05-06 18:05 | 47.45262 | 8.55750 | 1397 ft | 10 kts | 276° |
| 2026-05-06 18:05 | 47.45270 | 8.55650 | 1397 ft | 10 kts | 276° |
| 2026-05-06 18:05 | 47.45296 | 8.55563 | 1402 ft | 9 kts | 327° |
| 2026-05-06 18:06 | 47.45352 | 8.55526 | 1406 ft | 8 kts | 334° |
| 2026-05-06 18:06 | 47.45397 | 8.55493 | 1402 ft | 7 kts | 334° |
| 2026-05-06 18:06 | 47.45434 | 8.55468 | 1397 ft | 5 kts | 335° |
| 2026-05-06 18:06 | 47.45470 | 8.55444 | 1401 ft | 7 kts | 335° |
| 2026-05-06 18:07 | 47.45519 | 8.55411 | 1406 ft | 9 kts | 335° |
| 2026-05-06 18:07 | 47.45586 | 8.55364 | 1398 ft | 12 kts | 334° |
| 2026-05-06 18:07 | 47.45651 | 8.55323 | 1404 ft | 8 kts | 352° |
| 2026-05-06 18:07 | 47.45672 | 8.55382 | 1397 ft | 7 kts | 101° |
| 2026-05-06 18:08 | 47.45668 | 8.55456 | 1397 ft | 8 kts | 95° |
| 2026-05-06 18:08 | 47.45662 | 8.55543 | 1397 ft | 10 kts | 96° |
| 2026-05-06 18:08 | 47.45654 | 8.55663 | 1397 ft | 12 kts | 95° |
| 2026-05-06 18:08 | 47.45646 | 8.55775 | 1406 ft | 10 kts | 96° |
| 2026-05-06 18:09 | 47.45639 | 8.55868 | 1401 ft | 8 kts | 96° |
| 2026-05-06 18:09 | 47.45633 | 8.55950 | 1398 ft | 9 kts | 96° |
| 2026-05-06 18:09 | 47.45625 | 8.56064 | 1398 ft | 11 kts | 96° |
| 2026-05-06 18:09 | 47.45617 | 8.56167 | 1404 ft | 9 kts | 96° |
| 2026-05-06 18:10 | 47.45611 | 8.56260 | 1398 ft | 11 kts | 96° |
| 2026-05-06 18:10 | 47.45601 | 8.56396 | 1405 ft | 14 kts | 96° |
| 2026-05-06 18:10 | 47.45592 | 8.56525 | 1402 ft | 12 kts | 96° |
| 2026-05-06 18:10 | 47.45583 | 8.56636 | 1402 ft | 10 kts | 96° |
| 2026-05-06 18:11 | 47.45576 | 8.56734 | 1399 ft | 9 kts | 96° |
| 2026-05-06 18:11 | 47.45572 | 8.56793 | 1399 ft | 8 kts | 96° |
| 2026-05-06 18:11 | 47.45566 | 8.56889 | 1399 ft | 6 kts | 95° |
| 2026-05-06 18:11 | 47.45562 | 8.56941 | 1400 ft | 4 kts | 95° |
| 2026-05-06 18:12 | 47.45562 | 8.56975 | 1400 ft | 3 kts | 84° |
| 2026-05-06 18:12 | 47.45574 | 8.57000 | 1401 ft | 3 kts | 41° |
| 2026-05-06 18:12 | 47.45602 | 8.57018 | 1405 ft | 3 kts | 18° |
| 2026-05-06 18:12 | 47.45606 | 8.57019 | 1404 ft | 0 kts | 17° |
| 2026-05-06 18:13 | 47.45617 | 8.57022 | 1406 ft | 3 kts | 8° |
| 2026-05-06 18:13 | 47.45620 | 8.57023 | 1406 ft | 1 kts | 8° |
| 2026-05-06 18:13 | 47.45657 | 8.57017 | 1413 ft | 5 kts | 323° |
| 2026-05-06 18:13 | 47.45665 | 8.56970 | 1410 ft | 4 kts | 273° |
| 2026-05-06 18:14 | 47.45667 | 8.56934 | 1406 ft | 0 kts | 274° |
| 2026-05-06 18:14 | 47.45667 | 8.56932 | 1406 ft | 2 kts | 274° |
| 2026-05-06 18:14 | 47.45677 | 8.56771 | 1412 ft | 45 kts | 276° |
| 2026-05-06 18:14 | 47.45734 | 8.55961 | 1408 ft | 111 kts | 275° |
| 2026-05-06 18:15 | 47.45798 | 8.55083 | 1404 ft | 146 kts | 277° |
| 2026-05-06 18:15 | 47.45925 | 8.53141 | 2255 ft | 134 kts | 272° |
| 2026-05-06 18:15 | 47.45963 | 8.52231 | 2788 ft | 129 kts | 273° |
| 2026-05-06 18:15 | 47.46066 | 8.50576 | 3444 ft | 123 kts | 277° |
| 2026-05-06 18:16 | 47.46155 | 8.49657 | 3461 ft | 146 kts | 277° |
| 2026-05-06 18:16 | 47.46208 | 8.48016 | 3551 ft | 174 kts | 256° |
| 2026-05-06 18:16 | 47.45575 | 8.46406 | 3798 ft | 199 kts | 223° |
| 2026-05-06 18:16 | 47.44386 | 8.45236 | 4339 ft | 209 kts | 220° |
| 2026-05-06 18:17 | 47.43345 | 8.43757 | 5141 ft | 206 kts | 234° |
| 2026-05-06 18:17 | 47.42482 | 8.41984 | 5671 ft | 223 kts | 236° |
| 2026-05-06 18:17 | 47.41540 | 8.40014 | 6097 ft | 244 kts | 236° |
| 2026-05-06 18:17 | 47.40545 | 8.37927 | 6810 ft | 251 kts | 236° |
| 2026-05-06 18:18 | 47.39547 | 8.35825 | 7576 ft | 256 kts | 236° |
| 2026-05-06 18:18 | 47.38593 | 8.33594 | 8426 ft | 259 kts | 241° |
| 2026-05-06 18:18 | 47.37467 | 8.31512 | 9205 ft | 267 kts | 217° |
| 2026-05-06 18:18 | 47.35694 | 8.30619 | 9923 ft | 280 kts | 185° |
| 2026-05-06 18:19 | 47.33739 | 8.31108 | 10523 ft | 295 kts | 167° |
| 2026-05-06 18:19 | 47.31687 | 8.31991 | 10737 ft | 318 kts | 168° |
| 2026-05-06 18:19 | 47.29466 | 8.32895 | 10908 ft | 341 kts | 168° |
| 2026-05-06 18:19 | 47.27119 | 8.33823 | 11313 ft | 354 kts | 168° |
| 2026-05-06 18:20 | 47.24724 | 8.34756 | 11946 ft | 358 kts | 168° |
| 2026-05-06 18:20 | 47.22327 | 8.35685 | 12613 ft | 361 kts | 168° |
| 2026-05-06 18:20 | 47.19885 | 8.36629 | 13316 ft | 364 kts | 168° |
| 2026-05-06 18:20 | 47.17426 | 8.37579 | 13781 ft | 367 kts | 168° |
| 2026-05-06 18:21 | 47.14954 | 8.38538 | 13897 ft | 367 kts | 168° |
| 2026-05-06 18:21 | 47.12489 | 8.39500 | 14137 ft | 366 kts | 168° |
| 2026-05-06 18:21 | 47.10015 | 8.40462 | 14575 ft | 369 kts | 168° |
| 2026-05-06 18:21 | 47.07521 | 8.41427 | 15010 ft | 371 kts | 167° |
| 2026-05-06 18:22 | 47.05010 | 8.42399 | 15468 ft | 374 kts | 167° |
| 2026-05-06 18:22 | 47.02490 | 8.43376 | 15928 ft | 376 kts | 167° |
| 2026-05-06 18:22 | 46.99949 | 8.44362 | 16416 ft | 378 kts | 167° |
| 2026-05-06 18:22 | 46.97392 | 8.45349 | 16945 ft | 380 kts | 167° |
| 2026-05-06 18:23 | 46.94875 | 8.46542 | 17483 ft | 383 kts | 158° |
| 2026-05-06 18:23 | 46.92482 | 8.48181 | 18010 ft | 385 kts | 156° |
| 2026-05-06 18:23 | 46.90050 | 8.49863 | 18530 ft | 387 kts | 156° |
| 2026-05-06 18:23 | 46.87608 | 8.51559 | 19012 ft | 389 kts | 156° |
| 2026-05-06 18:24 | 46.85161 | 8.53255 | 19503 ft | 390 kts | 157° |
| 2026-05-06 18:24 | 46.82706 | 8.54950 | 19996 ft | 392 kts | 157° |
| 2026-05-06 18:24 | 46.80228 | 8.56655 | 20503 ft | 393 kts | 157° |
| 2026-05-06 18:24 | 46.77749 | 8.58361 | 21007 ft | 395 kts | 158° |
| 2026-05-06 18:25 | 46.75257 | 8.60075 | 21516 ft | 396 kts | 158° |
| 2026-05-06 18:25 | 46.72764 | 8.61787 | 22065 ft | 396 kts | 158° |
| 2026-05-06 18:25 | 46.70260 | 8.63506 | 22425 ft | 401 kts | 158° |
| 2026-05-06 18:25 | 46.67731 | 8.65242 | 22815 ft | 403 kts | 158° |
| 2026-05-06 18:26 | 46.65191 | 8.66985 | 23181 ft | 405 kts | 158° |
| 2026-05-06 18:26 | 46.62630 | 8.68741 | 23581 ft | 406 kts | 158° |
| 2026-05-06 18:26 | 46.60064 | 8.70498 | 23950 ft | 408 kts | 158° |
| 2026-05-06 18:26 | 46.57493 | 8.72257 | 24271 ft | 409 kts | 159° |
| 2026-05-06 18:27 | 46.54949 | 8.73995 | 24607 ft | 411 kts | 159° |
| 2026-05-06 18:27 | 46.52357 | 8.75762 | 24954 ft | 412 kts | 159° |
| 2026-05-06 18:27 | 46.49760 | 8.77530 | 25312 ft | 414 kts | 159° |
| 2026-05-06 18:27 | 46.47147 | 8.79306 | 25664 ft | 414 kts | 159° |
| 2026-05-06 18:28 | 46.44528 | 8.81086 | 25952 ft | 416 kts | 160° |
| 2026-05-06 18:28 | 46.41893 | 8.82875 | 26320 ft | 417 kts | 160° |
| 2026-05-06 18:28 | 46.39262 | 8.84660 | 26615 ft | 419 kts | 160° |
| 2026-05-06 18:28 | 46.36613 | 8.86457 | 26812 ft | 420 kts | 161° |
| 2026-05-06 18:29 | 46.33974 | 8.88245 | 27046 ft | 422 kts | 161° |
| 2026-05-06 18:29 | 46.31294 | 8.90058 | 27311 ft | 423 kts | 161° |
| 2026-05-06 18:29 | 46.28655 | 8.91839 | 27533 ft | 425 kts | 161° |
| 2026-05-06 18:29 | 46.25944 | 8.93668 | 27792 ft | 425 kts | 162° |
| 2026-05-06 18:30 | 46.23258 | 8.95477 | 28021 ft | 426 kts | 162° |
| 2026-05-06 18:30 | 46.20575 | 8.97286 | 28311 ft | 426 kts | 161° |
| 2026-05-06 18:30 | 46.17922 | 8.99075 | 28645 ft | 425 kts | 162° |
| 2026-05-06 18:30 | 46.15213 | 9.00900 | 29013 ft | 423 kts | 162° |
| 2026-05-06 18:31 | 46.12542 | 9.02695 | 29383 ft | 422 kts | 162° |
| 2026-05-06 18:31 | 46.09926 | 9.04449 | 29733 ft | 421 kts | 162° |
| 2026-05-06 18:31 | 46.07267 | 9.06228 | 30075 ft | 420 kts | 162° |
| 2026-05-06 18:31 | 46.04624 | 9.07994 | 30355 ft | 419 kts | 162° |
| 2026-05-06 18:32 | 46.01983 | 9.09753 | 30657 ft | 419 kts | 163° |
| 2026-05-06 18:32 | 45.99316 | 9.11528 | 30863 ft | 419 kts | 163° |
| 2026-05-06 18:32 | 45.96659 | 9.13298 | 31069 ft | 421 kts | 163° |
| 2026-05-06 18:32 | 45.94037 | 9.15048 | 31344 ft | 420 kts | 163° |
| 2026-05-06 18:33 | 45.91388 | 9.16816 | 31638 ft | 420 kts | 163° |
| 2026-05-06 18:33 | 45.88737 | 9.18583 | 31948 ft | 419 kts | 163° |
| 2026-05-06 18:33 | 45.86063 | 9.20362 | 32195 ft | 418 kts | 163° |
| 2026-05-06 18:33 | 45.83456 | 9.22093 | 32478 ft | 418 kts | 163° |
| 2026-05-06 18:34 | 45.80819 | 9.23841 | 32747 ft | 418 kts | 163° |
| 2026-05-06 18:34 | 45.78183 | 9.25586 | 32978 ft | 417 kts | 163° |
| 2026-05-06 18:34 | 45.75548 | 9.27328 | 33260 ft | 417 kts | 163° |
| 2026-05-06 18:34 | 45.72912 | 9.29066 | 33547 ft | 416 kts | 163° |
| 2026-05-06 18:35 | 45.70281 | 9.30798 | 33820 ft | 416 kts | 163° |
| 2026-05-06 18:35 | 45.67653 | 9.32526 | 34057 ft | 416 kts | 163° |
| 2026-05-06 18:35 | 45.65022 | 9.34256 | 34265 ft | 416 kts | 163° |
| 2026-05-06 18:35 | 45.62395 | 9.35986 | 34456 ft | 417 kts | 163° |
| 2026-05-06 18:36 | 45.59747 | 9.37731 | 34828 ft | 418 kts | 163° |
| 2026-05-06 18:36 | 45.57105 | 9.39468 | 34948 ft | 419 kts | 163° |
| 2026-05-06 18:36 | 45.54451 | 9.41208 | 35143 ft | 419 kts | 163° |
| 2026-05-06 18:36 | 45.51798 | 9.42945 | 35344 ft | 420 kts | 163° |
| 2026-05-06 18:37 | 45.49151 | 9.44681 | 35506 ft | 420 kts | 163° |
| 2026-05-06 18:37 | 45.46509 | 9.46412 | 35671 ft | 421 kts | 163° |
| 2026-05-06 18:37 | 45.43844 | 9.48152 | 35820 ft | 421 kts | 163° |
| 2026-05-06 18:37 | 45.41175 | 9.49890 | 35974 ft | 422 kts | 163° |
| 2026-05-06 18:38 | 45.35795 | 9.53379 | 35969 ft | 427 kts | 163° |
| 2026-05-06 18:38 | 45.30379 | 9.56901 | 35932 ft | 428 kts | 162° |
| 2026-05-06 18:39 | 45.24951 | 9.60425 | 35886 ft | 429 kts | 163° |
| 2026-05-06 18:40 | 45.16805 | 9.65696 | 35796 ft | 428 kts | 163° |
| 2026-05-06 18:40 | 45.11407 | 9.69183 | 35814 ft | 428 kts | 163° |
| 2026-05-06 18:41 | 45.05986 | 9.72672 | 35837 ft | 428 kts | 163° |
| 2026-05-06 18:41 | 45.00562 | 9.76158 | 35843 ft | 428 kts | 163° |
| 2026-05-06 18:42 | 44.95142 | 9.79636 | 35857 ft | 428 kts | 163° |
| 2026-05-06 18:42 | 44.89720 | 9.83112 | 35857 ft | 428 kts | 163° |
| 2026-05-06 18:43 | 44.84304 | 9.86581 | 35861 ft | 428 kts | 163° |
| 2026-05-06 18:43 | 44.78896 | 9.90019 | 35871 ft | 428 kts | 163° |
| 2026-05-06 18:44 | 44.73470 | 9.93461 | 35862 ft | 427 kts | 163° |
| 2026-05-06 18:44 | 44.68047 | 9.96897 | 35892 ft | 427 kts | 164° |
| 2026-05-06 18:45 | 44.62630 | 10.00329 | 35909 ft | 426 kts | 163° |
| 2026-05-06 18:45 | 44.57231 | 10.03748 | 35924 ft | 425 kts | 163° |
| 2026-05-06 18:46 | 44.51839 | 10.07147 | 35903 ft | 425 kts | 163° |
| 2026-05-06 18:46 | 44.46429 | 10.10542 | 35917 ft | 426 kts | 163° |
| 2026-05-06 18:47 | 44.41022 | 10.13929 | 35936 ft | 426 kts | 163° |
| 2026-05-06 18:47 | 44.35619 | 10.17324 | 35948 ft | 426 kts | 163° |
| 2026-05-06 18:48 | 44.30259 | 10.20696 | 35955 ft | 426 kts | 163° |
| 2026-05-06 18:48 | 44.24853 | 10.24072 | 35960 ft | 425 kts | 164° |
| 2026-05-06 18:49 | 44.19450 | 10.27429 | 35960 ft | 425 kts | 164° |
| 2026-05-06 18:49 | 44.14032 | 10.30792 | 35913 ft | 425 kts | 163° |
| 2026-05-06 18:50 | 44.08590 | 10.34164 | 35976 ft | 430 kts | 163° |
| 2026-05-06 18:50 | 44.03163 | 10.37532 | 35973 ft | 430 kts | 163° |
| 2026-05-06 18:51 | 43.97696 | 10.40911 | 35962 ft | 430 kts | 163° |
| 2026-05-06 18:51 | 43.92217 | 10.44295 | 35954 ft | 431 kts | 163° |
| 2026-05-06 18:52 | 43.86733 | 10.47671 | 35944 ft | 431 kts | 163° |
| 2026-05-06 18:52 | 43.81246 | 10.51048 | 35940 ft | 432 kts | 163° |
| 2026-05-06 18:53 | 43.75746 | 10.54429 | 35937 ft | 433 kts | 162° |
| 2026-05-06 18:53 | 43.70356 | 10.58234 | 35907 ft | 437 kts | 159° |
| 2026-05-06 18:54 | 43.65026 | 10.62351 | 35947 ft | 440 kts | 158° |
| 2026-05-06 18:54 | 43.59682 | 10.66437 | 35958 ft | 439 kts | 159° |
| 2026-05-06 18:55 | 43.54315 | 10.70422 | 35967 ft | 438 kts | 159° |
| 2026-05-06 18:55 | 43.48934 | 10.74362 | 35962 ft | 438 kts | 159° |
| 2026-05-06 18:56 | 43.43558 | 10.78306 | 35970 ft | 438 kts | 159° |
| 2026-05-06 18:56 | 43.38196 | 10.82246 | 35971 ft | 438 kts | 159° |
| 2026-05-06 18:57 | 43.32822 | 10.86181 | 35971 ft | 438 kts | 159° |
| 2026-05-06 18:57 | 43.27445 | 10.90120 | 35956 ft | 437 kts | 159° |
| 2026-05-06 18:58 | 43.22075 | 10.94045 | 35960 ft | 437 kts | 159° |
| 2026-05-06 18:58 | 43.16697 | 10.97965 | 35959 ft | 437 kts | 159° |
| 2026-05-06 18:59 | 43.11321 | 11.01880 | 35962 ft | 438 kts | 159° |
| 2026-05-06 18:59 | 43.05937 | 11.05779 | 35964 ft | 438 kts | 159° |
| 2026-05-06 19:00 | 43.01458 | 11.09025 | 35965 ft | 438 kts | 159° |
| 2026-05-06 19:00 | 42.95198 | 11.13555 | 35974 ft | 437 kts | 159° |
| 2026-05-06 19:01 | 42.89821 | 11.17445 | 35974 ft | 437 kts | 159° |
| 2026-05-06 19:01 | 42.85315 | 11.20683 | 35935 ft | 437 kts | 159° |
| 2026-05-06 19:02 | 42.79938 | 11.24537 | 35945 ft | 437 kts | 159° |
| 2026-05-06 19:02 | 42.74565 | 11.28397 | 35976 ft | 437 kts | 159° |
| 2026-05-06 19:03 | 42.69190 | 11.32252 | 35947 ft | 436 kts | 159° |
| 2026-05-06 19:03 | 42.63844 | 11.36073 | 35949 ft | 436 kts | 159° |
| 2026-05-06 19:04 | 42.58482 | 11.39901 | 35960 ft | 436 kts | 159° |
| 2026-05-06 19:04 | 42.53108 | 11.43717 | 35967 ft | 435 kts | 160° |
| 2026-05-06 19:05 | 42.47744 | 11.47531 | 35976 ft | 435 kts | 159° |
| 2026-05-06 19:05 | 42.42381 | 11.51339 | 35957 ft | 435 kts | 159° |
| 2026-05-06 19:06 | 42.37005 | 11.55144 | 35966 ft | 435 kts | 159° |
| 2026-05-06 19:06 | 42.31645 | 11.58937 | 35971 ft | 435 kts | 159° |
| 2026-05-06 19:07 | 42.26278 | 11.62717 | 35980 ft | 435 kts | 159° |
| 2026-05-06 19:07 | 42.20909 | 11.66490 | 35982 ft | 435 kts | 159° |
| 2026-05-06 19:08 | 42.15539 | 11.70259 | 35973 ft | 434 kts | 160° |
| 2026-05-06 19:08 | 42.10208 | 11.73992 | 35977 ft | 434 kts | 160° |
| 2026-05-06 19:09 | 42.04831 | 11.77755 | 35977 ft | 434 kts | 160° |
| 2026-05-06 19:09 | 41.99497 | 11.81486 | 35963 ft | 434 kts | 160° |
| 2026-05-06 19:10 | 41.94134 | 11.85222 | 35966 ft | 434 kts | 160° |
| 2026-05-06 19:10 | 41.88769 | 11.88955 | 35970 ft | 434 kts | 160° |
| 2026-05-06 19:11 | 41.83408 | 11.92677 | 35971 ft | 434 kts | 160° |
| 2026-05-06 19:11 | 41.78044 | 11.96402 | 35964 ft | 434 kts | 160° |
| 2026-05-06 19:12 | 41.72680 | 12.00114 | 35963 ft | 434 kts | 160° |
| 2026-05-06 19:12 | 41.67326 | 12.03806 | 35968 ft | 434 kts | 160° |
| 2026-05-06 19:13 | 41.61937 | 12.07509 | 35969 ft | 435 kts | 160° |
| 2026-05-06 19:13 | 41.56536 | 12.11226 | 35975 ft | 436 kts | 160° |
| 2026-05-06 19:14 | 41.51171 | 12.14909 | 35970 ft | 437 kts | 159° |
| 2026-05-06 19:14 | 41.45776 | 12.18715 | 35973 ft | 440 kts | 157° |
| 2026-05-06 19:15 | 41.40462 | 12.22831 | 35985 ft | 441 kts | 156° |
| 2026-05-06 19:15 | 41.35188 | 12.26976 | 35988 ft | 441 kts | 156° |
| 2026-05-06 19:16 | 41.29874 | 12.31062 | 35979 ft | 441 kts | 157° |
| 2026-05-06 19:16 | 41.24520 | 12.35112 | 35991 ft | 441 kts | 157° |
| 2026-05-06 19:17 | 41.19196 | 12.39129 | 35996 ft | 441 kts | 157° |
| 2026-05-06 19:17 | 41.13846 | 12.43174 | 35983 ft | 442 kts | 156° |
| 2026-05-06 19:18 | 41.08502 | 12.47210 | 35968 ft | 442 kts | 156° |
| 2026-05-06 19:18 | 41.03161 | 12.51238 | 35989 ft | 442 kts | 156° |
| 2026-05-06 19:19 | 40.97804 | 12.55271 | 35995 ft | 443 kts | 156° |
| 2026-05-06 19:19 | 40.92490 | 12.59272 | 36004 ft | 443 kts | 156° |
| 2026-05-06 19:20 | 40.87124 | 12.63303 | 36013 ft | 443 kts | 156° |
| 2026-05-06 19:20 | 40.81762 | 12.67311 | 36004 ft | 443 kts | 156° |
| 2026-05-06 19:21 | 40.76391 | 12.71312 | 35997 ft | 443 kts | 156° |
| 2026-05-06 19:21 | 40.71025 | 12.75315 | 36012 ft | 443 kts | 156° |
| 2026-05-06 19:22 | 40.65653 | 12.79317 | 36005 ft | 443 kts | 156° |
| 2026-05-06 19:22 | 40.60277 | 12.83312 | 36000 ft | 443 kts | 156° |
| 2026-05-06 19:23 | 40.54945 | 12.87273 | 36009 ft | 443 kts | 156° |
| 2026-05-06 19:23 | 40.49577 | 12.91251 | 36018 ft | 443 kts | 156° |
| 2026-05-06 19:24 | 40.44193 | 12.95227 | 36021 ft | 443 kts | 156° |
| 2026-05-06 19:24 | 40.38797 | 12.99197 | 36007 ft | 443 kts | 156° |
| 2026-05-06 19:25 | 40.33427 | 13.03143 | 36020 ft | 443 kts | 156° |
| 2026-05-06 19:25 | 40.28053 | 13.07101 | 36025 ft | 442 kts | 156° |
| 2026-05-06 19:26 | 40.22687 | 13.11033 | 36027 ft | 442 kts | 156° |
| 2026-05-06 19:26 | 40.17344 | 13.14940 | 36007 ft | 442 kts | 156° |
| 2026-05-06 19:27 | 40.11963 | 13.18877 | 36000 ft | 443 kts | 156° |
| 2026-05-06 19:27 | 40.06582 | 13.22804 | 36008 ft | 444 kts | 156° |
| 2026-05-06 19:28 | 40.01191 | 13.26727 | 36012 ft | 444 kts | 156° |
| 2026-05-06 19:28 | 39.95786 | 13.30652 | 36017 ft | 444 kts | 156° |
| 2026-05-06 19:29 | 39.90382 | 13.34566 | 36025 ft | 444 kts | 156° |
| 2026-05-06 19:29 | 39.84982 | 13.38481 | 36022 ft | 444 kts | 156° |
| 2026-05-06 19:30 | 39.79580 | 13.42390 | 36024 ft | 444 kts | 156° |
| 2026-05-06 19:30 | 39.74209 | 13.46258 | 36026 ft | 444 kts | 156° |
| 2026-05-06 19:31 | 39.68802 | 13.50148 | 36005 ft | 444 kts | 156° |
| 2026-05-06 19:31 | 39.60675 | 13.55992 | 36002 ft | 445 kts | 156° |
| 2026-05-06 19:32 | 39.55243 | 13.59881 | 36009 ft | 446 kts | 156° |
| 2026-05-06 19:32 | 39.49813 | 13.63772 | 36016 ft | 446 kts | 156° |
| 2026-05-06 19:33 | 39.44375 | 13.67657 | 36006 ft | 446 kts | 156° |
| 2026-05-06 19:33 | 39.38931 | 13.71539 | 35988 ft | 447 kts | 156° |
| 2026-05-06 19:34 | 39.33469 | 13.75421 | 35994 ft | 448 kts | 156° |
| 2026-05-06 19:34 | 39.28022 | 13.79286 | 35993 ft | 448 kts | 156° |
| 2026-05-06 19:35 | 39.22537 | 13.83185 | 35997 ft | 449 kts | 156° |
| 2026-05-06 19:35 | 39.17063 | 13.87067 | 35970 ft | 449 kts | 156° |
| 2026-05-06 19:36 | 39.11606 | 13.90923 | 35980 ft | 450 kts | 156° |
| 2026-05-06 19:36 | 39.06106 | 13.94801 | 35985 ft | 451 kts | 156° |
| 2026-05-06 19:37 | 39.00600 | 13.98677 | 35990 ft | 451 kts | 156° |
| 2026-05-06 19:37 | 38.95983 | 14.01921 | 35996 ft | 451 kts | 156° |
| 2026-05-06 19:38 | 38.89572 | 14.06418 | 35968 ft | 452 kts | 156° |
| 2026-05-06 19:38 | 38.84043 | 14.10277 | 35976 ft | 452 kts | 156° |
| 2026-05-06 19:39 | 38.78519 | 14.14141 | 35974 ft | 453 kts | 156° |
| 2026-05-06 19:39 | 38.72980 | 14.18018 | 35978 ft | 453 kts | 156° |
| 2026-05-06 19:40 | 38.67447 | 14.21878 | 35942 ft | 454 kts | 156° |
| 2026-05-06 19:40 | 38.61879 | 14.25746 | 35951 ft | 455 kts | 156° |
| 2026-05-06 19:41 | 38.56346 | 14.29573 | 35956 ft | 455 kts | 156° |
| 2026-05-06 19:41 | 38.50775 | 14.33432 | 35959 ft | 456 kts | 156° |
| 2026-05-06 19:42 | 38.45159 | 14.37319 | 35954 ft | 456 kts | 156° |
| 2026-05-06 19:42 | 38.39600 | 14.41164 | 35760 ft | 459 kts | 156° |
| 2026-05-06 19:43 | 38.36792 | 14.43103 | 35377 ft | 458 kts | 156° |
| 2026-05-06 19:43 | 38.33988 | 14.45037 | 34906 ft | 456 kts | 156° |
| 2026-05-06 19:43 | 38.31177 | 14.46897 | 34428 ft | 453 kts | 158° |
| 2026-05-06 19:43 | 38.28348 | 14.48633 | 33952 ft | 450 kts | 159° |
| 2026-05-06 19:44 | 38.25499 | 14.50289 | 33413 ft | 448 kts | 160° |
| 2026-05-06 19:44 | 38.22651 | 14.51903 | 32882 ft | 449 kts | 160° |
| 2026-05-06 19:44 | 38.19793 | 14.53525 | 32349 ft | 451 kts | 160° |
| 2026-05-06 19:44 | 38.16930 | 14.55170 | 31837 ft | 452 kts | 159° |
| 2026-05-06 19:45 | 38.14089 | 14.56829 | 31335 ft | 445 kts | 158° |
| 2026-05-06 19:45 | 38.11328 | 14.58465 | 30786 ft | 428 kts | 158° |
| 2026-05-06 19:45 | 38.08688 | 14.60040 | 30236 ft | 418 kts | 158° |
| 2026-05-06 19:45 | 38.06066 | 14.61599 | 29620 ft | 415 kts | 158° |
| 2026-05-06 19:46 | 38.03455 | 14.63145 | 28997 ft | 415 kts | 158° |
| 2026-05-06 19:46 | 38.00811 | 14.64704 | 28401 ft | 419 kts | 158° |
| 2026-05-06 19:46 | 37.98164 | 14.66215 | 27784 ft | 414 kts | 162° |
| 2026-05-06 19:46 | 37.95431 | 14.67255 | 27178 ft | 408 kts | 171° |
| 2026-05-06 19:47 | 37.92636 | 14.67709 | 26602 ft | 401 kts | 180° |
| 2026-05-06 19:47 | 37.90796 | 14.67674 | 26226 ft | 397 kts | 188° |
| 2026-05-06 19:47 | 37.88102 | 14.67001 | 25663 ft | 390 kts | 200° |
| 2026-05-06 19:47 | 37.85648 | 14.65622 | 25107 ft | 382 kts | 213° |
| 2026-05-06 19:48 | 37.83557 | 14.63629 | 24563 ft | 376 kts | 225° |
| 2026-05-06 19:48 | 37.81880 | 14.61110 | 24042 ft | 374 kts | 237° |
| 2026-05-06 19:48 | 37.80665 | 14.58237 | 23517 ft | 372 kts | 244° |
| 2026-05-06 19:48 | 37.79556 | 14.55283 | 22896 ft | 371 kts | 244° |
| 2026-05-06 19:49 | 37.78441 | 14.52342 | 22286 ft | 370 kts | 244° |
| 2026-05-06 19:49 | 37.77251 | 14.49459 | 21684 ft | 369 kts | 236° |
| 2026-05-06 19:49 | 37.75468 | 14.47143 | 21094 ft | 369 kts | 216° |
| 2026-05-06 19:49 | 37.73181 | 14.45789 | 20513 ft | 361 kts | 197° |
| 2026-05-06 19:50 | 37.70706 | 14.45519 | 19957 ft | 356 kts | 181° |
| 2026-05-06 19:50 | 37.68267 | 14.45777 | 19405 ft | 345 kts | 180° |
| 2026-05-06 19:50 | 37.65874 | 14.46064 | 18893 ft | 347 kts | 177° |
| 2026-05-06 19:50 | 37.63570 | 14.47079 | 18473 ft | 360 kts | 152° |
| 2026-05-06 19:51 | 37.61793 | 14.49343 | 18025 ft | 373 kts | 125° |
| 2026-05-06 19:51 | 37.60927 | 14.52449 | 17553 ft | 382 kts | 98° |
| 2026-05-06 19:51 | 37.61103 | 14.55792 | 17164 ft | 383 kts | 79° |
| 2026-05-06 19:51 | 37.61792 | 14.59037 | 16779 ft | 381 kts | 75° |
| 2026-05-06 19:52 | 37.62517 | 14.62223 | 16375 ft | 372 kts | 75° |
| 2026-05-06 19:52 | 37.63222 | 14.65304 | 16019 ft | 359 kts | 76° |
| 2026-05-06 19:52 | 37.63779 | 14.68272 | 15652 ft | 345 kts | 84° |
| 2026-05-06 19:52 | 37.63693 | 14.71180 | 15283 ft | 322 kts | 115° |
| 2026-05-06 19:53 | 37.62594 | 14.73489 | 14925 ft | 299 kts | 146° |
| 2026-05-06 19:53 | 37.60852 | 14.74645 | 14573 ft | 276 kts | 177° |
| 2026-05-06 19:53 | 37.58966 | 14.74923 | 14225 ft | 273 kts | 182° |
| 2026-05-06 19:53 | 37.57063 | 14.75078 | 13823 ft | 274 kts | 185° |
| 2026-05-06 19:54 | 37.55237 | 14.74657 | 13410 ft | 262 kts | 212° |
| 2026-05-06 19:54 | 37.53993 | 14.73049 | 13016 ft | 260 kts | 244° |
| 2026-05-06 19:54 | 37.53562 | 14.70853 | 12640 ft | 263 kts | 258° |
| 2026-05-06 19:54 | 37.53343 | 14.68546 | 12250 ft | 265 kts | 260° |
| 2026-05-06 19:55 | 37.53174 | 14.66233 | 11890 ft | 266 kts | 260° |
| 2026-05-06 19:55 | 37.53012 | 14.63921 | 11518 ft | 265 kts | 260° |
| 2026-05-06 19:55 | 37.52840 | 14.61612 | 11155 ft | 265 kts | 260° |
| 2026-05-06 19:55 | 37.52655 | 14.59299 | 10791 ft | 265 kts | 259° |
| 2026-05-06 19:56 | 37.52459 | 14.56989 | 10432 ft | 265 kts | 259° |
| 2026-05-06 19:56 | 37.52259 | 14.54680 | 10077 ft | 265 kts | 259° |
| 2026-05-06 19:56 | 37.52059 | 14.52371 | 9707 ft | 265 kts | 259° |
| 2026-05-06 19:56 | 37.51854 | 14.50066 | 9319 ft | 265 kts | 259° |
| 2026-05-06 19:57 | 37.51642 | 14.47764 | 8944 ft | 263 kts | 256° |
| 2026-05-06 19:57 | 37.50961 | 14.45708 | 8559 ft | 251 kts | 225° |
| 2026-05-06 19:57 | 37.49553 | 14.44524 | 8193 ft | 244 kts | 194° |
| 2026-05-06 19:57 | 37.47878 | 14.44447 | 7817 ft | 242 kts | 173° |
| 2026-05-06 19:58 | 37.46213 | 14.44693 | 7438 ft | 240 kts | 173° |
| 2026-05-06 19:58 | 37.44557 | 14.44936 | 7090 ft | 240 kts | 173° |
| 2026-05-06 19:58 | 37.42932 | 14.45360 | 6729 ft | 237 kts | 153° |
| 2026-05-06 19:58 | 37.41799 | 14.46807 | 6365 ft | 239 kts | 115° |
| 2026-05-06 19:59 | 37.41581 | 14.48887 | 5997 ft | 245 kts | 91° |
| 2026-05-06 19:59 | 37.41727 | 14.51011 | 5738 ft | 242 kts | 87° |
| 2026-05-06 19:59 | 37.41934 | 14.53085 | 5521 ft | 236 kts | 86° |
| 2026-05-06 19:59 | 37.42145 | 14.55095 | 5299 ft | 232 kts | 86° |
| 2026-05-06 20:00 | 37.42352 | 14.57096 | 5078 ft | 230 kts | 85° |
| 2026-05-06 20:00 | 37.42560 | 14.59092 | 4860 ft | 229 kts | 87° |
| 2026-05-06 20:00 | 37.42742 | 14.61058 | 4640 ft | 224 kts | 88° |
| 2026-05-06 20:00 | 37.42913 | 14.62987 | 4536 ft | 222 kts | 87° |
| 2026-05-06 20:01 | 37.43082 | 14.64922 | 4437 ft | 223 kts | 87° |
| 2026-05-06 20:01 | 37.43251 | 14.66845 | 4339 ft | 223 kts | 87° |
| 2026-05-06 20:01 | 37.43421 | 14.68779 | 4178 ft | 221 kts | 87° |
| 2026-05-06 20:01 | 37.43588 | 14.70688 | 3977 ft | 219 kts | 86° |
| 2026-05-06 20:02 | 37.43754 | 14.72585 | 3786 ft | 218 kts | 86° |
| 2026-05-06 20:02 | 37.43919 | 14.74475 | 3583 ft | 216 kts | 86° |
| 2026-05-06 20:02 | 37.44082 | 14.76343 | 3414 ft | 214 kts | 85° |
| 2026-05-06 20:02 | 37.44244 | 14.78207 | 3292 ft | 215 kts | 85° |
| 2026-05-06 20:03 | 37.44405 | 14.80068 | 3173 ft | 211 kts | 85° |
| 2026-05-06 20:03 | 37.44564 | 14.81896 | 3078 ft | 209 kts | 85° |
| 2026-05-06 20:03 | 37.44718 | 14.83673 | 3002 ft | 196 kts | 85° |
| 2026-05-06 20:03 | 37.44859 | 14.85299 | 3001 ft | 182 kts | 85° |
| 2026-05-06 20:04 | 37.44992 | 14.86853 | 2891 ft | 176 kts | 85° |
| 2026-05-06 20:04 | 37.45122 | 14.88361 | 2727 ft | 174 kts | 85° |
| 2026-05-06 20:04 | 37.45250 | 14.89856 | 2483 ft | 169 kts | 83° |
| 2026-05-06 20:04 | 37.45372 | 14.91282 | 2268 ft | 160 kts | 85° |
| 2026-05-06 20:05 | 37.45489 | 14.92652 | 2063 ft | 156 kts | 85° |
| 2026-05-06 20:05 | 37.45604 | 14.93990 | 1855 ft | 153 kts | 84° |
| 2026-05-06 20:05 | 37.45716 | 14.95306 | 1652 ft | 149 kts | 85° |
| 2026-05-06 20:05 | 37.45827 | 14.96599 | 1458 ft | 150 kts | 86° |
| 2026-05-06 20:06 | 37.45937 | 14.97900 | 1250 ft | 149 kts | 84° |
| 2026-05-06 20:06 | 37.46046 | 14.99179 | 1050 ft | 142 kts | 82° |
| 2026-05-06 20:06 | 37.46148 | 15.00381 | 831 ft | 137 kts | 83° |
| 2026-05-06 20:06 | 37.46248 | 15.01561 | 665 ft | 133 kts | 81° |
| 2026-05-06 20:07 | 37.46345 | 15.02702 | 489 ft | 131 kts | 79° |
| 2026-05-06 20:07 | 37.46446 | 15.03832 | 372 ft | 129 kts | 81° |
| 2026-05-06 20:07 | 37.46534 | 15.04963 | 165 ft | 130 kts | 81° |
| 2026-05-06 20:07 | 37.46635 | 15.06082 | 34 ft | 122 kts | 81° |
| 2026-05-06 20:08 | 37.46706 | 15.06928 | 29 ft | 72 kts | 84° |
| 2026-05-06 20:08 | 37.46739 | 15.07366 | 26 ft | 33 kts | 84° |
| 2026-05-06 20:08 | 37.46777 | 15.07591 | 25 ft | 20 kts | 70° |
| 2026-05-06 20:08 | 37.46817 | 15.07700 | 27 ft | 10 kts | 62° |
| 2026-05-06 20:09 | 37.46857 | 15.07774 | 24 ft | 9 kts | 52° |
| 2026-05-06 20:09 | 37.46912 | 15.07804 | 23 ft | 11 kts | 342° |
| 2026-05-06 20:09 | 37.46935 | 15.07736 | 25 ft | 7 kts | 268° |
| 2026-05-06 20:09 | 37.46927 | 15.07638 | 27 ft | 17 kts | 263° |
| 2026-05-06 20:10 | 37.46915 | 15.07492 | 27 ft | 16 kts | 264° |
| 2026-05-06 20:10 | 37.46904 | 15.07354 | 27 ft | 15 kts | 264° |
| 2026-05-06 20:10 | 37.46894 | 15.07237 | 29 ft | 12 kts | 264° |
| 2026-05-06 20:10 | 37.46885 | 15.07137 | 29 ft | 11 kts | 264° |
| 2026-05-06 20:11 | 37.46876 | 15.07027 | 27 ft | 15 kts | 264° |
| 2026-05-06 20:11 | 37.46868 | 15.06910 | 25 ft | 12 kts | 263° |
| 2026-05-06 20:11 | 37.46865 | 15.06881 | 26 ft | 0 kts | 264° |
| 2026-05-06 20:11 | 37.46864 | 15.06873 | 28 ft | 4 kts | 264° |
| 2026-05-06 20:12 | 37.46857 | 15.06798 | 27 ft | 12 kts | 263° |
| 2026-05-06 20:12 | 37.46850 | 15.06711 | 28 ft | 8 kts | 265° |
| 2026-05-06 20:12 | 37.46846 | 15.06646 | 28 ft | 7 kts | 266° |
| 2026-05-06 20:12 | 37.46842 | 15.06595 | 28 ft | 4 kts | 264° |
| 2026-05-06 20:13 | 37.46839 | 15.06557 | 27 ft | 5 kts | 264° |
| 2026-05-06 20:13 | 37.46835 | 15.06493 | 27 ft | 8 kts | 264° |
| 2026-05-06 20:13 | 37.46829 | 15.06431 | 27 ft | 6 kts | 263° |
| 2026-05-06 20:13 | 37.46832 | 15.06388 | 28 ft | 4 kts | 299° |
| 2026-05-06 20:14 | 37.46852 | 15.06371 | 28 ft | 3 kts | 333° |
| 2026-05-06 20:14 | 37.46874 | 15.06365 | 28 ft | 5 kts | 351° |
| 2026-05-06 20:14 | 37.46905 | 15.06363 | 28 ft | 4 kts | 1° |
| 2026-05-06 20:14 | 37.46935 | 15.06377 | 28 ft | 6 kts | 32° |
| 2026-05-06 20:15 | 37.46964 | 15.06399 | 28 ft | 4 kts | 31° |
| 2026-05-06 20:15 | 37.46980 | 15.06412 | 28 ft | 2 kts | 31° |
| 2026-05-06 20:15 | 37.46981 | 15.06413 | 28 ft | 0 kts | 31° |